Nearby METAR Reports

 

EGMC - Southend-On-Sea, United Kingdom
Distance from station: NE 10km
Updated: 25/06/2019 13:20
Partly cloudy
Partly cloudy
 Wind from NNE
Wind: NNE 8 mph , 13 km/h
Temperature: 23°C
Dew Point: 18°C
Humidity: 74%
Barometer: 1017 hPa
Clouds: Partly cloudy
Visibility: 6 miles , 10 km
Cloud details: Few Clouds 671 m
Partly cloudy 945 m
2019/06/25 12:20 EGMC 251220Z 02007KT 9999 FEW022 SCT031 23/18 Q1017
EGLC - London City Airp, United Kingdom
Distance from station: W 37km
Updated: 25/06/2019 13:20
Mostly cloudy
Mostly cloudy
 Wind from N
Wind: N 6 mph , 9 km/h
Temperature: 24°C
Dew Point: 18°C
Humidity: 69%
Barometer: 1018 hPa
Clouds: Mostly cloudy
Visibility: 6 miles , 10 km
Cloud details: Mostly cloudy 640 m
Mostly cloudy 823 m
2019/06/25 12:20 EGLC 251220Z AUTO 36005KT 290V100 9999 BKN021 BKN027 24/18 Q1018
EGKB - Biggin Hill, United Kingdom
Distance from station: WSW 45km
Updated: 25/06/2019 13:20
Mostly cloudy
Mostly cloudy
 Wind from N
Wind: N 6 mph , 9 km/h
Temperature: 23°C
Dew Point: 19°C
Humidity: 78%
Barometer: 1019 hPa
Clouds: Mostly cloudy
Visibility: 6 miles , 10 km
Cloud details: Mostly cloudy 610 m
2019/06/25 12:20 EGKB 251220Z 35005KT 290V040 9999 BKN020 23/19 Q1019
 
EGSS - Stansted Airport, United Kingdom
Distance from station: NNW 48km
Updated: 25/06/2019 13:20
Overcast
Overcast
 Wind from N
Wind: N 9 mph , 15 km/h
Temperature: 21°C
Dew Point: 18°C
Humidity: 83%
Barometer: 1019 hPa
Clouds: Overcast
Visibility: 6 miles , 10 km
Cloud details: Mostly cloudy 305 m
Overcast 579 m
2019/06/25 12:20 EGSS 251220Z 36008KT 9999 BKN010 OVC019 21/18 Q1019
EGKK - London/Gatwick A, United Kingdom
Distance from station: SW 67km
Updated: 25/06/2019 13:20
Partly cloudy
Partly cloudy
 Wind from varies
Wind: varies 7 mph , 11 km/h, Gust: 18 mph , 30 km/h
Temperature: 23°C
Dew Point: 19°C
Humidity: 78%
Barometer: 1018 hPa
Clouds: Partly cloudy
Visibility: 6 miles , 10 km
Cloud details: Few Clouds 640 m
Partly cloudy 1036 m
2019/06/25 12:20 EGKK 251220Z VRB06G16KT 9999 FEW021 SCT034 23/19 Q1018
EGMD - Lydd Airport, United Kingdom
Distance from station: SSE 67km
Updated: 25/06/2019 12:20
Mostly cloudy
Mostly cloudy
 Wind from E
Wind: E 8 mph , 13 km/h
Temperature: 24°C
Dew Point: 19°C
Humidity: 74%
Barometer: 1017 hPa
Clouds: Mostly cloudy
Visibility: 6 miles , 10 km
Cloud details: Mostly cloudy 701 m
2019/06/25 11:20 EGMD 251120Z 09007KT 9999 BKN023 24/19 Q1017
 
EGWU - Northolt Raf, United Kingdom
Distance from station: W 69km
Updated: 25/06/2019 13:21
Mostly cloudy
Mostly cloudy
 Wind from NNE
Wind: NNE 7 mph , 11 km/h
Temperature: 23°C
Dew Point: 18°C
Humidity: 74%
Barometer: 1018 hPa
Clouds: Mostly cloudy
Visibility: 6 miles , 10 km
Cloud details: Partly cloudy 549 m
Mostly cloudy 1524 m
2019/06/25 12:21 EGWU 251221Z 03006KT 9999 SCT018 BKN050 23/18 Q1018 TEMPO FEW020 RMK WHT TEMPO BLU
EGLL - London/Heathrow, United Kingdom
Distance from station: W 72km
Updated: 25/06/2019 13:20
Mostly cloudy
Mostly cloudy
 Wind from NE
Wind: NE 7 mph , 11 km/h
Temperature: 23°C
Dew Point: 18°C
Humidity: 74%
Barometer: 1018 hPa
Clouds: Mostly cloudy
Visibility: 6 miles , 10 km
Cloud details: Mostly cloudy 579 m
Mostly cloudy 792 m
2019/06/25 12:20 EGLL 251220Z AUTO 05006KT 010V080 9999 BKN019 BKN026 23/18 Q1018
EGUW - Wattisham Raf, United Kingdom
Distance from station: NNE 72km
Updated: 25/06/2019 13:20
Mostly cloudy
Mostly cloudy
 Wind from NNW
Wind: NNW 12 mph , 19 km/h
Temperature: 21°C
Dew Point: 18°C
Humidity: 83%
Barometer: 1018 hPa
Clouds: Mostly cloudy
Visibility: 6 miles , 10 km
Cloud details: Partly cloudy 488 m
Mostly cloudy 762 m
2019/06/25 12:20 EGUW 251220Z 34010KT 9999 SCT016 BKN025 21/18 Q1018 BECMG BKN025 RMK WHT BECMG BLU
 
EGGW - Luton Airport, United Kingdom
Distance from station: WNW 76km
Updated: 25/06/2019 13:20
Overcast
Overcast
 Wind from N
Wind: N 9 mph , 15 km/h
Temperature: 17°C
Dew Point: 17°C
Humidity: 100%
Barometer: 1019 hPa
Clouds: Overcast
Visibility: 6 miles , 9 km
Cloud details: Overcast 61 m
2019/06/25 12:20 EGGW 251220Z AUTO 36008KT 330V080 9000 OVC002 17/17 Q1019
EGSC - Cambridge, United Kingdom
Distance from station: NNW 81km
Updated: 25/06/2019 13:20
Mostly cloudy
Mostly cloudy
 Wind from NNW
Wind: NNW 9 mph , 15 km/h
Temperature: 18°C
Dew Point: 16°C
Humidity: 88%
Barometer: 1019 hPa
Clouds: Mostly cloudy
Visibility: 4 miles , 6 km
Cloud details: Mostly cloudy 122 m
2019/06/25 12:20 EGSC 251220Z 34008KT 6000 BKN004 18/16 Q1019